createdAt,value
2019-01-14T00:00:26.799Z,982.44
2019-01-14T00:01:26.796Z,982.51
2019-01-14T00:02:26.770Z,982.37
2019-01-14T00:03:26.962Z,982.39
2019-01-14T00:04:26.759Z,982.51
2019-01-14T00:05:26.753Z,982.46
2019-01-14T00:06:26.737Z,982.49
2019-01-14T00:07:26.733Z,982.48
2019-01-14T00:08:26.703Z,982.58
2019-01-14T00:09:31.186Z,982.64
2019-01-14T00:10:26.686Z,982.60
2019-01-14T00:11:26.671Z,982.63
2019-01-14T00:12:26.673Z,982.72
2019-01-14T00:13:26.672Z,982.74
2019-01-14T00:14:26.668Z,982.73
2019-01-14T00:15:26.649Z,982.79
2019-01-14T00:16:26.621Z,982.82
2019-01-14T00:17:26.606Z,982.93
2019-01-14T00:18:26.610Z,982.95
2019-01-14T00:19:26.610Z,982.94
2019-01-14T00:20:26.578Z,983.05
2019-01-14T00:21:26.557Z,982.97
2019-01-14T00:22:26.581Z,983.20
2019-01-14T00:23:26.544Z,983.24
2019-01-14T00:24:26.554Z,983.21
2019-01-14T00:25:26.531Z,983.19
2019-01-14T00:26:26.522Z,983.29
2019-01-14T00:27:26.529Z,983.42
2019-01-14T00:28:26.483Z,983.28
2019-01-14T00:29:26.489Z,983.31
2019-01-14T00:30:26.464Z,983.34
2019-01-14T00:31:26.448Z,983.30
2019-01-14T00:32:26.483Z,983.37
2019-01-14T00:33:26.441Z,983.44
2019-01-14T00:34:26.423Z,983.51
2019-01-14T00:35:26.418Z,983.46
2019-01-14T00:36:26.412Z,983.46
2019-01-14T00:37:26.395Z,983.46
2019-01-14T00:38:26.408Z,983.53
2019-01-14T00:39:26.393Z,983.44
2019-01-14T00:40:26.371Z,983.37
2019-01-14T00:41:26.348Z,983.47
2019-01-14T00:42:26.326Z,983.45
2019-01-14T00:43:26.354Z,983.51
2019-01-14T00:44:26.319Z,983.57
2019-01-14T00:45:26.312Z,983.56
2019-01-14T00:46:26.296Z,983.52
2019-01-14T00:47:26.291Z,983.56
2019-01-14T00:48:26.285Z,983.57
2019-01-14T00:49:26.262Z,983.73
2019-01-14T00:50:26.254Z,983.74
2019-01-14T00:51:26.252Z,983.68
2019-01-14T00:52:26.232Z,983.74
2019-01-14T00:53:26.238Z,983.75
2019-01-14T00:54:26.203Z,983.70
2019-01-14T00:55:26.197Z,983.76
2019-01-14T00:56:26.190Z,983.79
2019-01-14T00:57:26.172Z,983.93
2019-01-14T00:58:26.212Z,983.96
2019-01-14T00:59:26.162Z,983.90
2019-01-14T01:00:26.133Z,983.94
2019-01-14T01:01:26.144Z,983.93
2019-01-14T01:02:26.121Z,984.02
2019-01-14T01:03:26.105Z,983.96
2019-01-14T01:04:26.123Z,983.96
2019-01-14T01:05:26.123Z,984.04
2019-01-14T01:06:26.078Z,984.09
2019-01-14T01:07:26.064Z,984.06
2019-01-14T01:08:26.074Z,984.07
2019-01-14T01:09:26.083Z,984.08
2019-01-14T01:10:26.042Z,984.20
2019-01-14T01:11:26.019Z,984.18
2019-01-14T01:12:26.012Z,984.21
2019-01-14T01:13:26.006Z,984.27
2019-01-14T01:14:26.009Z,984.19
2019-01-14T01:15:25.980Z,984.34
2019-01-14T01:16:25.977Z,984.29
2019-01-14T01:17:25.956Z,984.30
2019-01-14T01:18:25.959Z,984.23
2019-01-14T01:19:25.963Z,984.38
2019-01-14T01:20:25.914Z,984.40
2019-01-14T01:21:25.944Z,984.29
2019-01-14T01:22:25.907Z,984.39
2019-01-14T01:23:25.891Z,984.37
2019-01-14T01:24:25.872Z,984.35
2019-01-14T01:25:25.873Z,984.40
2019-01-14T01:26:25.853Z,984.42
2019-01-14T01:27:25.874Z,984.44
2019-01-14T01:28:25.840Z,984.51
2019-01-14T01:29:25.831Z,984.55
2019-01-14T01:30:25.816Z,984.61
2019-01-14T01:31:25.829Z,984.55
2019-01-14T01:32:25.819Z,984.52
2019-01-14T01:33:25.780Z,984.61
2019-01-14T01:34:25.761Z,984.57
2019-01-14T01:35:25.760Z,984.59
2019-01-14T01:36:31.878Z,984.54
2019-01-14T01:37:26.762Z,984.60
2019-01-14T01:38:25.745Z,984.74
2019-01-14T01:39:25.732Z,984.71
2019-01-14T01:40:25.717Z,984.60
2019-01-14T01:41:25.702Z,984.60
2019-01-14T01:42:25.746Z,984.65
2019-01-14T01:43:25.678Z,984.65
2019-01-14T01:44:25.683Z,984.74
2019-01-14T01:45:25.645Z,984.80
2019-01-14T01:46:25.634Z,984.79
2019-01-14T01:47:25.639Z,984.92
2019-01-14T01:48:25.657Z,984.99
2019-01-14T01:49:25.635Z,985.02
2019-01-14T01:50:25.614Z,985.11
2019-01-14T01:51:25.599Z,985.05
2019-01-14T01:52:25.581Z,985.20
2019-01-14T01:53:25.569Z,985.18
2019-01-14T01:54:25.591Z,985.19
2019-01-14T01:55:25.546Z,985.18
2019-01-14T01:56:25.544Z,985.16
2019-01-14T01:57:25.515Z,985.29
2019-01-14T01:58:25.505Z,985.32
2019-01-14T01:59:25.511Z,985.45
2019-01-14T02:00:25.506Z,985.50
2019-01-14T02:01:25.489Z,985.34
2019-01-14T02:02:25.485Z,985.49
2019-01-14T02:03:25.464Z,985.49
2019-01-14T02:04:25.459Z,985.52
2019-01-14T02:05:25.433Z,985.54
2019-01-14T02:06:25.457Z,985.54
2019-01-14T02:07:25.431Z,985.57
2019-01-14T02:08:25.412Z,985.66
2019-01-14T02:09:25.396Z,985.59
2019-01-14T02:10:25.374Z,985.57
2019-01-14T02:11:25.375Z,985.63
2019-01-14T02:12:25.394Z,985.62
2019-01-14T02:13:25.360Z,985.68
2019-01-14T02:14:25.334Z,985.71
2019-01-14T02:15:25.330Z,985.79
2019-01-14T02:16:25.316Z,985.81
2019-01-14T02:17:25.299Z,985.78
2019-01-14T02:18:25.315Z,985.76
2019-01-14T02:19:25.272Z,985.83
2019-01-14T02:20:25.269Z,985.78
2019-01-14T02:21:25.259Z,985.83
2019-01-14T02:22:25.294Z,985.97
2019-01-14T02:23:25.239Z,985.98
2019-01-14T02:24:25.248Z,985.88
2019-01-14T02:25:25.240Z,985.98
2019-01-14T02:26:25.208Z,986.06
2019-01-14T02:27:25.194Z,986.02
2019-01-14T02:28:25.179Z,986.04
2019-01-14T02:29:25.191Z,985.97
2019-01-14T02:30:25.160Z,986.05
2019-01-14T02:31:25.144Z,986.08
2019-01-14T02:32:25.140Z,985.96
2019-01-14T02:33:25.126Z,986.08
2019-01-14T02:34:25.139Z,986.15
2019-01-14T02:35:25.105Z,986.13
2019-01-14T02:36:25.089Z,986.08
2019-01-14T02:37:25.077Z,986.17
2019-01-14T02:38:25.082Z,986.18
2019-01-14T02:39:25.083Z,986.19
2019-01-14T02:40:25.059Z,986.15
2019-01-14T02:41:25.046Z,986.10
2019-01-14T02:42:25.019Z,986.16
2019-01-14T02:43:25.031Z,986.26
2019-01-14T02:44:25.019Z,986.18
2019-01-14T02:45:25.000Z,986.20
2019-01-14T02:46:25.012Z,986.19
2019-01-14T02:47:24.973Z,986.36
2019-01-14T02:48:25.368Z,986.37
2019-01-14T02:49:24.980Z,986.43
2019-01-14T02:50:24.930Z,986.52
2019-01-14T02:51:24.927Z,986.48
2019-01-14T02:52:24.926Z,986.64
2019-01-14T02:53:24.912Z,986.55
2019-01-14T02:54:24.900Z,986.66
2019-01-14T02:55:24.906Z,986.68
2019-01-14T02:56:24.877Z,986.68
2019-01-14T02:57:24.866Z,986.67
2019-01-14T02:58:24.891Z,986.70
2019-01-14T02:59:24.850Z,986.70
2019-01-14T03:00:24.824Z,986.80
2019-01-14T03:01:24.812Z,986.75
2019-01-14T03:02:24.804Z,986.81
2019-01-14T03:03:24.798Z,986.83
2019-01-14T03:04:24.819Z,986.88
2019-01-14T03:05:24.789Z,986.93
2019-01-14T03:06:24.768Z,986.93
2019-01-14T03:07:24.768Z,987.04
2019-01-14T03:08:24.740Z,987.07
2019-01-14T03:09:24.751Z,987.00
2019-01-14T03:10:24.721Z,987.24
2019-01-14T03:11:24.718Z,987.16
2019-01-14T03:12:24.704Z,987.07
2019-01-14T03:13:24.697Z,987.09
2019-01-14T03:14:24.710Z,987.18
2019-01-14T03:15:24.664Z,987.17
2019-01-14T03:16:24.660Z,987.26
2019-01-14T03:17:24.661Z,987.35
2019-01-14T03:18:24.638Z,987.38
2019-01-14T03:19:24.625Z,987.34
2019-01-14T03:20:24.626Z,987.44
2019-01-14T03:21:24.595Z,987.35
2019-01-14T03:22:24.601Z,987.39
2019-01-14T03:23:24.584Z,987.55
2019-01-14T03:24:24.589Z,987.43
2019-01-14T03:25:24.548Z,987.42
2019-01-14T03:26:24.545Z,987.58
2019-01-14T03:27:24.529Z,987.53
2019-01-14T03:28:24.544Z,987.59
2019-01-14T03:29:24.517Z,987.44
2019-01-14T03:30:24.524Z,987.63
2019-01-14T03:31:24.493Z,987.67
2019-01-14T03:32:24.488Z,987.65
2019-01-14T03:33:24.474Z,987.56
2019-01-14T03:34:24.465Z,987.68
2019-01-14T03:35:24.451Z,987.78
2019-01-14T03:36:24.472Z,987.84
2019-01-14T03:37:24.427Z,987.71
2019-01-14T03:38:24.410Z,987.79
2019-01-14T03:39:24.410Z,987.92
2019-01-14T03:40:24.408Z,987.81
2019-01-14T03:41:24.420Z,987.96
2019-01-14T03:42:24.375Z,987.99
2019-01-14T03:43:24.368Z,987.82
2019-01-14T03:44:24.362Z,987.90
2019-01-14T03:45:24.395Z,988.02
2019-01-14T03:46:24.332Z,987.94
2019-01-14T03:47:24.322Z,988.14
2019-01-14T03:48:24.329Z,987.90
2019-01-14T03:49:24.290Z,988.08
2019-01-14T03:50:24.274Z,988.06
2019-01-14T03:51:24.277Z,988.08
2019-01-14T03:52:24.262Z,988.02
2019-01-14T03:53:24.258Z,988.05
2019-01-14T03:54:24.268Z,988.15
2019-01-14T03:55:24.238Z,988.13
2019-01-14T03:56:24.212Z,988.06
2019-01-14T03:57:24.201Z,988.07
2019-01-14T03:58:24.216Z,988.18
2019-01-14T03:59:24.178Z,988.20
2019-01-14T04:00:24.198Z,988.27
2019-01-14T04:01:24.170Z,988.25
2019-01-14T04:02:24.149Z,988.26
2019-01-14T04:03:24.135Z,988.21
2019-01-14T04:04:24.162Z,988.28
2019-01-14T04:05:24.156Z,988.39
2019-01-14T04:06:24.122Z,988.41
2019-01-14T04:07:24.104Z,988.33
2019-01-14T04:08:24.078Z,988.42
2019-01-14T04:09:24.075Z,988.38
2019-01-14T04:10:24.081Z,988.53
2019-01-14T04:11:24.052Z,988.45
2019-01-14T04:12:24.048Z,988.49
2019-01-14T04:13:24.036Z,988.54
2019-01-14T04:14:24.027Z,988.42
2019-01-14T04:15:24.120Z,988.53
2019-01-14T04:16:23.989Z,988.58
2019-01-14T04:17:24.037Z,988.47
2019-01-14T04:18:24.035Z,988.59
2019-01-14T04:19:23.968Z,988.72
2019-01-14T04:20:23.949Z,988.55
2019-01-14T04:21:23.942Z,988.65
2019-01-14T04:22:23.930Z,988.61
2019-01-14T04:23:23.920Z,988.67
2019-01-14T04:24:23.953Z,988.73
2019-01-14T04:25:23.934Z,988.72
2019-01-14T04:26:23.897Z,988.67
2019-01-14T04:27:23.894Z,988.74
2019-01-14T04:28:23.897Z,988.79
2019-01-14T04:29:23.857Z,988.73
2019-01-14T04:30:23.842Z,988.68
2019-01-14T04:31:23.837Z,988.84
2019-01-14T04:32:23.828Z,988.85
2019-01-14T04:33:23.824Z,988.89
2019-01-14T04:34:23.857Z,988.93
2019-01-14T04:35:23.800Z,988.87
2019-01-14T04:36:23.789Z,988.96
2019-01-14T04:37:23.774Z,989.00
2019-01-14T04:38:23.775Z,988.84
2019-01-14T04:39:23.783Z,988.99
2019-01-14T04:40:23.741Z,988.97
2019-01-14T04:41:23.728Z,988.95
2019-01-14T04:42:23.713Z,989.06
2019-01-14T04:43:23.705Z,988.95
2019-01-14T04:44:23.698Z,989.17
2019-01-14T04:45:23.709Z,989.24
2019-01-14T04:46:23.678Z,989.26
2019-01-14T04:47:23.665Z,989.38
2019-01-14T04:48:23.645Z,989.37
2019-01-14T04:49:23.653Z,989.39
2019-01-14T04:50:23.653Z,989.43
2019-01-14T04:51:23.617Z,989.51
2019-01-14T04:52:23.603Z,989.45
2019-01-14T04:53:23.615Z,989.46
2019-01-14T04:54:23.581Z,989.45
2019-01-14T04:55:23.585Z,989.52
2019-01-14T04:56:23.574Z,989.42
2019-01-14T04:57:23.585Z,989.49
2019-01-14T04:58:23.591Z,989.61
2019-01-14T04:59:23.529Z,989.52
2019-01-14T05:00:23.527Z,989.65
2019-01-14T05:01:23.505Z,989.62
2019-01-14T05:02:23.495Z,989.76
2019-01-14T05:03:23.516Z,989.70
2019-01-14T05:04:23.486Z,989.64
2019-01-14T05:05:23.465Z,989.61
2019-01-14T05:06:23.449Z,989.68
2019-01-14T05:07:29.563Z,989.73
2019-01-14T05:08:24.469Z,989.65
2019-01-14T05:09:23.439Z,989.55
2019-01-14T05:10:23.413Z,989.69
2019-01-14T05:11:23.396Z,989.71
2019-01-14T05:12:23.381Z,989.81
2019-01-14T05:13:23.373Z,989.75
2019-01-14T05:14:23.387Z,989.72
2019-01-14T05:15:23.359Z,989.79
2019-01-14T05:16:23.360Z,989.82
2019-01-14T05:17:23.338Z,989.73
2019-01-14T05:18:23.351Z,989.73
2019-01-14T05:19:23.312Z,989.77
2019-01-14T05:20:23.330Z,989.81
2019-01-14T05:21:23.303Z,989.78
2019-01-14T05:22:23.289Z,989.87
2019-01-14T05:23:23.270Z,989.75
2019-01-14T05:24:23.253Z,989.78
2019-01-14T05:25:23.242Z,989.85
2019-01-14T05:26:23.261Z,989.90
2019-01-14T05:27:23.238Z,989.74
2019-01-14T05:28:23.221Z,989.82
2019-01-14T05:29:23.222Z,989.83
2019-01-14T05:30:23.195Z,989.75
2019-01-14T05:31:23.178Z,989.69
2019-01-14T05:32:23.197Z,989.61
2019-01-14T05:33:23.154Z,989.66
2019-01-14T05:34:23.147Z,989.81
2019-01-14T05:35:23.145Z,989.79
2019-01-14T05:36:23.135Z,989.68
2019-01-14T05:37:23.115Z,989.75
2019-01-14T05:38:23.119Z,989.69
2019-01-14T05:39:23.115Z,989.77
2019-01-14T05:40:23.084Z,989.70
2019-01-14T05:41:23.087Z,989.75
2019-01-14T05:42:23.088Z,989.70
2019-01-14T05:43:23.096Z,989.67
2019-01-14T05:44:23.046Z,989.71
2019-01-14T05:45:23.028Z,989.78
2019-01-14T05:46:23.021Z,989.68
2019-01-14T05:47:23.016Z,989.85
2019-01-14T05:48:23.031Z,989.76
2019-01-14T05:49:22.990Z,989.85
2019-01-14T05:50:22.982Z,989.75
2019-01-14T05:51:22.965Z,989.76
2019-01-14T05:52:22.950Z,989.89
2019-01-14T05:53:22.950Z,989.84
2019-01-14T05:54:22.957Z,989.92
2019-01-14T05:55:22.917Z,989.87
2019-01-14T05:56:22.911Z,989.86
2019-01-14T05:57:22.894Z,989.79
2019-01-14T05:58:22.911Z,989.83
2019-01-14T05:59:22.888Z,989.80
2019-01-14T06:00:22.866Z,989.88
2019-01-14T06:01:22.868Z,989.75
2019-01-14T06:02:22.855Z,989.84
2019-01-14T06:03:22.849Z,989.85
2019-01-14T06:04:22.839Z,989.97
2019-01-14T06:05:22.810Z,989.86
2019-01-14T06:06:22.799Z,989.86
2019-01-14T06:07:22.808Z,989.91
2019-01-14T06:08:22.784Z,989.88
2019-01-14T06:09:22.786Z,990.00
2019-01-14T06:10:22.755Z,990.00
2019-01-14T06:11:22.769Z,990.01
2019-01-14T06:12:22.739Z,990.01
2019-01-14T06:13:22.739Z,990.04
2019-01-14T06:14:22.720Z,990.03
2019-01-14T06:15:22.727Z,989.96
2019-01-14T06:16:22.693Z,990.03
2019-01-14T06:17:22.673Z,989.98
2019-01-14T06:18:22.667Z,990.06
2019-01-14T06:19:22.688Z,990.09
2019-01-14T06:20:22.655Z,990.04
2019-01-14T06:21:22.664Z,990.00
2019-01-14T06:22:22.636Z,990.06
2019-01-14T06:23:22.606Z,990.05
2019-01-14T06:24:22.607Z,990.10
2019-01-14T06:25:22.595Z,990.12
2019-01-14T06:26:22.600Z,990.17
2019-01-14T06:27:22.569Z,990.17
2019-01-14T06:28:22.564Z,990.08
2019-01-14T06:29:22.543Z,990.30
2019-01-14T06:30:22.543Z,990.28
2019-01-14T06:31:22.553Z,990.27
2019-01-14T06:32:22.530Z,990.38
2019-01-14T06:33:22.536Z,990.37
2019-01-14T06:34:22.498Z,990.41
2019-01-14T06:35:22.478Z,990.33
2019-01-14T06:36:22.479Z,990.36
2019-01-14T06:37:22.474Z,990.35
2019-01-14T06:38:22.469Z,990.44
2019-01-14T06:39:22.454Z,990.44
2019-01-14T06:40:22.441Z,990.46
2019-01-14T06:41:22.441Z,990.43
2019-01-14T06:42:22.416Z,990.52
2019-01-14T06:43:22.436Z,990.50
2019-01-14T06:44:22.393Z,990.46
2019-01-14T06:45:22.380Z,990.62
2019-01-14T06:46:22.370Z,990.46
2019-01-14T06:47:22.350Z,990.67
2019-01-14T06:48:22.343Z,990.57
2019-01-14T06:49:22.360Z,990.69
2019-01-14T06:50:22.316Z,990.83
2019-01-14T06:51:22.311Z,990.92
2019-01-14T06:52:22.305Z,990.78
2019-01-14T06:53:22.292Z,990.96
2019-01-14T06:54:22.284Z,991.01
2019-01-14T06:55:22.285Z,991.23
2019-01-14T06:56:22.255Z,991.18
2019-01-14T06:57:22.253Z,991.04
2019-01-14T06:58:22.235Z,991.09
2019-01-14T06:59:22.246Z,991.28
2019-01-14T07:00:22.206Z,991.27
2019-01-14T07:01:22.194Z,991.26
2019-01-14T07:02:22.187Z,991.32
2019-01-14T07:03:22.178Z,991.28
2019-01-14T07:04:22.166Z,991.33
2019-01-14T07:05:22.173Z,991.31
2019-01-14T07:06:22.448Z,991.44
2019-01-14T07:07:22.126Z,991.50
2019-01-14T07:08:22.117Z,991.46
2019-01-14T07:09:22.113Z,991.48
2019-01-14T07:10:22.126Z,991.53
2019-01-14T07:11:22.104Z,991.52
2019-01-14T07:12:22.087Z,991.59
2019-01-14T07:13:22.068Z,991.59
2019-01-14T07:14:22.084Z,991.71
2019-01-14T07:15:22.064Z,991.67
2019-01-14T07:16:22.085Z,991.78
2019-01-14T07:17:22.039Z,991.79
2019-01-14T07:18:22.026Z,991.77
2019-01-14T07:19:22.026Z,991.80
2019-01-14T07:20:22.000Z,991.79
2019-01-14T07:21:22.004Z,991.83
2019-01-14T07:22:22.008Z,991.82
2019-01-14T07:23:21.979Z,991.77
2019-01-14T07:24:21.960Z,991.84
2019-01-14T07:25:21.957Z,991.87
2019-01-14T07:26:21.941Z,991.72
2019-01-14T07:27:21.921Z,991.87
2019-01-14T07:28:21.929Z,991.84
2019-01-14T07:29:21.935Z,991.86
2019-01-14T07:30:21.967Z,991.95
2019-01-14T07:31:21.875Z,991.92
2019-01-14T07:32:21.887Z,992.03
2019-01-14T07:33:21.872Z,991.92
2019-01-14T07:34:21.842Z,992.00
2019-01-14T07:35:21.845Z,991.95
2019-01-14T07:36:21.831Z,991.97
2019-01-14T07:37:21.814Z,991.94
2019-01-14T07:38:21.839Z,991.98
2019-01-14T07:39:21.787Z,991.95
2019-01-14T07:40:21.777Z,992.00
2019-01-14T07:41:21.771Z,991.98
2019-01-14T07:42:21.760Z,992.04
2019-01-14T07:43:21.748Z,992.04
2019-01-14T07:44:21.781Z,992.12
2019-01-14T07:45:21.724Z,991.95
2019-01-14T07:46:21.715Z,992.12
2019-01-14T07:47:21.708Z,992.00
2019-01-14T07:48:21.699Z,992.16
2019-01-14T07:49:21.693Z,992.12
2019-01-14T07:50:21.694Z,992.16
2019-01-14T07:51:21.652Z,992.13
2019-01-14T07:52:21.744Z,992.25
2019-01-14T07:53:21.644Z,992.24
2019-01-14T07:54:21.636Z,992.26
2019-01-14T07:55:21.657Z,992.27
2019-01-14T07:56:21.613Z,992.31
2019-01-14T07:57:21.600Z,992.35
2019-01-14T07:58:21.646Z,992.34
2019-01-14T07:59:21.570Z,992.24
2019-01-14T08:00:21.568Z,992.37
2019-01-14T08:01:21.585Z,992.44
2019-01-14T08:02:21.569Z,992.41
2019-01-14T08:03:21.541Z,992.37
2019-01-14T08:04:21.525Z,992.39
2019-01-14T08:05:21.516Z,992.36
2019-01-14T08:06:21.513Z,992.41
2019-01-14T08:07:21.491Z,992.38
2019-01-14T08:08:21.485Z,992.44
2019-01-14T08:09:21.479Z,992.53
2019-01-14T08:10:21.482Z,992.53
2019-01-14T08:11:21.442Z,992.51
2019-01-14T08:12:21.439Z,992.51
2019-01-14T08:13:21.458Z,992.65
2019-01-14T08:14:21.406Z,992.70
2019-01-14T08:15:21.416Z,992.66
2019-01-14T08:16:21.406Z,992.77
2019-01-14T08:17:21.375Z,992.69
2019-01-14T08:18:21.387Z,992.65
2019-01-14T08:19:21.368Z,992.71
2019-01-14T08:20:21.407Z,992.73
2019-01-14T08:21:21.343Z,992.66
2019-01-14T08:22:21.330Z,992.75
2019-01-14T08:23:21.324Z,992.73
2019-01-14T08:24:21.298Z,992.78
2019-01-14T08:25:21.284Z,992.79
2019-01-14T08:26:21.307Z,992.73
2019-01-14T08:27:21.273Z,992.82
2019-01-14T08:28:21.265Z,992.88
2019-01-14T08:29:21.260Z,992.84
2019-01-14T08:30:21.249Z,992.87
2019-01-14T08:31:21.234Z,992.96
2019-01-14T08:32:21.244Z,992.92
2019-01-14T08:33:21.212Z,992.93
2019-01-14T08:34:21.198Z,992.90
2019-01-14T08:35:21.195Z,992.92
2019-01-14T08:36:21.163Z,992.91
2019-01-14T08:37:21.155Z,992.91
2019-01-14T08:38:21.519Z,992.96
2019-01-14T08:39:21.136Z,992.93
2019-01-14T08:40:21.139Z,992.96
2019-01-14T08:41:21.124Z,993.15
2019-01-14T08:42:21.124Z,992.99
2019-01-14T08:43:21.119Z,992.96
2019-01-14T08:44:21.083Z,993.05
2019-01-14T08:45:21.090Z,993.00
2019-01-14T08:46:21.055Z,992.90
2019-01-14T08:47:21.064Z,993.01
2019-01-14T08:48:21.047Z,992.96
2019-01-14T08:49:21.029Z,992.89
2019-01-14T08:50:21.041Z,992.83
2019-01-14T08:51:21.017Z,992.96
2019-01-14T08:52:21.003Z,992.97
2019-01-14T08:53:20.995Z,992.90
2019-01-14T08:54:20.986Z,993.03
2019-01-14T08:55:20.960Z,993.04
2019-01-14T08:56:20.978Z,993.01
2019-01-14T08:57:20.946Z,993.01
2019-01-14T08:58:20.925Z,993.11
2019-01-14T08:59:20.925Z,993.15
2019-01-14T09:00:20.910Z,993.16
2019-01-14T09:01:20.906Z,993.18
2019-01-14T09:02:20.917Z,993.19
2019-01-14T09:03:20.877Z,993.19
2019-01-14T09:04:23.405Z,993.21
2019-01-14T09:05:20.871Z,993.21
2019-01-14T09:06:20.838Z,993.25
2019-01-14T09:07:20.875Z,993.32
2019-01-14T09:08:20.820Z,993.29
2019-01-14T09:09:20.810Z,993.30
2019-01-14T09:10:20.806Z,993.39
2019-01-14T09:11:20.796Z,993.31
2019-01-14T09:12:20.778Z,993.37
2019-01-14T09:13:20.791Z,993.42
2019-01-14T09:14:20.760Z,993.34
2019-01-14T09:15:20.760Z,993.33
2019-01-14T09:16:20.733Z,993.50
2019-01-14T09:17:20.715Z,993.46
2019-01-14T09:18:20.733Z,993.45
2019-01-14T09:19:20.706Z,993.35
2019-01-14T09:20:20.724Z,993.41
2019-01-14T09:21:20.666Z,993.49
2019-01-14T09:22:20.660Z,993.39
2019-01-14T09:23:20.658Z,993.43
2019-01-14T09:24:20.644Z,993.39
2019-01-14T09:25:20.636Z,993.36
2019-01-14T09:26:20.639Z,993.46
2019-01-14T09:27:20.606Z,993.48
2019-01-14T09:28:20.608Z,993.54
2019-01-14T09:29:20.593Z,993.45
2019-01-14T09:30:20.577Z,993.45
2019-01-14T09:31:20.569Z,993.52
2019-01-14T09:32:20.560Z,993.57
2019-01-14T09:33:20.569Z,993.60
2019-01-14T09:34:20.531Z,993.56
2019-01-14T09:35:20.535Z,993.68
2019-01-14T09:36:20.518Z,993.70
2019-01-14T09:37:20.533Z,993.65
2019-01-14T09:38:20.517Z,993.63
2019-01-14T09:39:20.471Z,993.48
2019-01-14T09:40:20.460Z,993.69
2019-01-14T09:41:20.447Z,993.56
2019-01-14T09:42:20.507Z,993.58
2019-01-14T09:43:20.458Z,993.65
2019-01-14T09:44:20.427Z,993.68
2019-01-14T09:45:20.448Z,993.63
2019-01-14T09:46:20.411Z,993.66
2019-01-14T09:47:20.391Z,993.61
2019-01-14T09:48:20.412Z,993.65
2019-01-14T09:49:20.359Z,993.59
2019-01-14T09:50:20.356Z,993.67
2019-01-14T09:51:20.345Z,993.66
2019-01-14T09:52:20.354Z,993.67
2019-01-14T09:53:20.329Z,993.70
2019-01-14T09:54:20.326Z,993.62
2019-01-14T09:55:20.306Z,993.63
2019-01-14T09:56:20.305Z,993.49
2019-01-14T09:57:20.291Z,993.67
2019-01-14T09:58:20.321Z,993.70
2019-01-14T09:59:20.265Z,993.64
2019-01-14T10:00:20.265Z,993.60
2019-01-14T10:01:20.236Z,993.65
2019-01-14T10:02:20.231Z,993.58
2019-01-14T10:03:20.220Z,993.53
2019-01-14T10:04:20.213Z,993.67
2019-01-14T10:05:20.218Z,993.62
2019-01-14T10:06:20.199Z,993.55
2019-01-14T10:07:20.180Z,993.52
2019-01-14T10:08:20.161Z,993.59
2019-01-14T10:09:20.160Z,993.45
2019-01-14T10:10:20.161Z,993.54
2019-01-14T10:11:20.150Z,993.52
2019-01-14T10:12:20.162Z,993.54
2019-01-14T10:13:20.109Z,993.63
2019-01-14T10:14:20.091Z,993.59
2019-01-14T10:15:20.123Z,993.62
2019-01-14T10:16:20.115Z,993.64
2019-01-14T10:17:20.067Z,993.63
2019-01-14T10:18:20.055Z,993.57
2019-01-14T10:19:20.042Z,993.55
2019-01-14T10:20:20.023Z,993.67
2019-01-14T10:21:20.026Z,993.62
2019-01-14T10:22:20.032Z,993.64
2019-01-14T10:23:20.001Z,993.69
2019-01-14T10:24:19.996Z,993.61
2019-01-14T10:25:19.968Z,993.63
2019-01-14T10:26:19.953Z,993.70
2019-01-14T10:27:19.970Z,993.56
2019-01-14T10:28:19.987Z,993.70
2019-01-14T10:29:19.940Z,993.53
2019-01-14T10:30:19.926Z,993.62
2019-01-14T10:31:20.142Z,993.59
2019-01-14T10:32:19.888Z,993.66
2019-01-14T10:33:19.895Z,993.62
2019-01-14T10:34:19.860Z,993.63
2019-01-14T10:35:19.863Z,993.62
2019-01-14T10:36:19.859Z,993.51
2019-01-14T10:37:22.963Z,993.52
2019-01-14T10:38:19.850Z,993.49
2019-01-14T10:39:19.840Z,993.62
2019-01-14T10:40:19.801Z,993.63
2019-01-14T10:41:19.795Z,993.52
2019-01-14T10:42:19.791Z,993.48
2019-01-14T10:43:19.758Z,993.52
2019-01-14T10:44:19.824Z,993.60
2019-01-14T10:45:19.742Z,993.62
2019-01-14T10:46:19.738Z,993.50
2019-01-14T10:47:19.753Z,993.49
2019-01-14T10:48:19.716Z,993.58
2019-01-14T10:49:19.702Z,993.49
2019-01-14T10:50:19.715Z,993.49
2019-01-14T10:51:19.681Z,993.45
2019-01-14T10:52:19.676Z,993.51
2019-01-14T10:53:19.653Z,993.47
2019-01-14T10:54:19.674Z,993.51
2019-01-14T10:55:19.639Z,993.62
2019-01-14T10:56:19.633Z,993.52
2019-01-14T10:57:19.623Z,993.62
2019-01-14T10:58:19.632Z,993.49
2019-01-14T10:59:19.595Z,993.53
2019-01-14T11:00:19.593Z,993.45
2019-01-14T11:01:19.571Z,993.64
2019-01-14T11:02:19.558Z,993.67
2019-01-14T11:03:19.544Z,993.56
2019-01-14T11:04:19.561Z,993.59
2019-01-14T11:05:19.519Z,993.53
2019-01-14T11:06:19.501Z,993.59
2019-01-14T11:07:19.516Z,993.60
2019-01-14T11:08:19.487Z,993.58
2019-01-14T11:09:19.484Z,993.55
2019-01-14T11:10:19.494Z,993.61
2019-01-14T11:11:19.458Z,993.74
2019-01-14T11:12:19.447Z,993.62
2019-01-14T11:13:19.447Z,993.71
2019-01-14T11:14:19.443Z,993.76
2019-01-14T11:15:19.405Z,993.87
2019-01-14T11:16:19.427Z,993.83
2019-01-14T11:17:19.379Z,993.78
2019-01-14T11:18:19.379Z,993.94
2019-01-14T11:19:19.371Z,993.95
2019-01-14T11:20:19.367Z,993.82
2019-01-14T11:21:19.347Z,993.95
2019-01-14T11:22:19.378Z,993.90
2019-01-14T11:23:19.330Z,993.82
2019-01-14T11:24:19.314Z,993.90
2019-01-14T11:25:19.310Z,994.00
2019-01-14T11:26:19.294Z,993.97
2019-01-14T11:27:19.302Z,993.96
2019-01-14T11:28:19.289Z,994.01
2019-01-14T11:29:19.258Z,993.89
2019-01-14T11:30:19.247Z,993.86
2019-01-14T11:31:19.255Z,993.91
2019-01-14T11:32:19.224Z,994.02
2019-01-14T11:33:19.246Z,994.08
2019-01-14T11:34:19.198Z,994.07
2019-01-14T11:35:19.188Z,994.07
2019-01-14T11:36:19.174Z,994.03
2019-01-14T11:37:19.170Z,994.12
2019-01-14T11:38:19.152Z,994.11
2019-01-14T11:39:19.173Z,994.00
2019-01-14T11:40:19.144Z,994.12
2019-01-14T11:41:19.131Z,993.98
2019-01-14T11:42:19.130Z,994.10
2019-01-14T11:43:19.106Z,994.10
2019-01-14T11:44:19.124Z,994.01
2019-01-14T11:45:19.125Z,994.06
2019-01-14T11:46:19.078Z,994.04
2019-01-14T11:47:19.058Z,994.04
2019-01-14T11:48:19.044Z,994.14
2019-01-14T11:49:19.034Z,994.18
2019-01-14T11:50:19.026Z,994.25
2019-01-14T11:51:19.042Z,994.20
2019-01-14T11:52:19.013Z,994.14
2019-01-14T11:53:18.999Z,994.16
2019-01-14T11:54:18.984Z,994.25
2019-01-14T11:55:18.981Z,994.24
2019-01-14T11:56:18.998Z,994.34
2019-01-14T11:57:18.956Z,994.25
2019-01-14T11:58:18.945Z,994.34
2019-01-14T11:59:18.938Z,994.47
2019-01-14T12:00:18.914Z,994.53
2019-01-14T12:01:18.921Z,994.43
2019-01-14T12:02:18.955Z,994.43
2019-01-14T12:03:18.891Z,994.43
2019-01-14T12:04:18.878Z,994.50
2019-01-14T12:05:18.869Z,994.55
2019-01-14T12:06:18.853Z,994.58
2019-01-14T12:07:18.857Z,994.60
2019-01-14T12:08:18.869Z,994.62
2019-01-14T12:09:18.838Z,994.64
2019-01-14T12:10:18.825Z,994.50
2019-01-14T12:11:18.799Z,994.55
2019-01-14T12:12:18.782Z,994.56
2019-01-14T12:13:18.772Z,994.55
2019-01-14T12:14:18.793Z,994.48
2019-01-14T12:15:18.764Z,994.46
2019-01-14T12:16:18.749Z,994.44
2019-01-14T12:17:18.723Z,994.47
2019-01-14T12:18:18.719Z,994.49
2019-01-14T12:19:18.718Z,994.46
2019-01-14T12:20:18.738Z,994.48
2019-01-14T12:21:18.700Z,994.61
2019-01-14T12:22:18.696Z,994.40
2019-01-14T12:23:18.663Z,994.47
2019-01-14T12:24:18.666Z,994.60
2019-01-14T12:25:19.945Z,994.52
2019-01-14T12:26:18.675Z,994.61
2019-01-14T12:27:18.633Z,994.55
2019-01-14T12:28:18.621Z,994.49